sensor_id;sensor_type;location;lat;lon;timestamp;P1;durP1;ratioP1;P2;durP2;ratioP2
35312;SDS011;21425;50.454;30.466;2022-09-21T00:03:45;7.57;;;4.93;;
35312;SDS011;21425;50.454;30.466;2022-09-21T00:06:11;6.60;;;4.72;;
35312;SDS011;21425;50.454;30.466;2022-09-21T00:08:39;6.40;;;4.18;;
35312;SDS011;21425;50.454;30.466;2022-09-21T00:11:05;7.03;;;4.90;;
35312;SDS011;21425;50.454;30.466;2022-09-21T00:13:33;9.05;;;4.75;;
35312;SDS011;21425;50.454;30.466;2022-09-21T00:15:59;6.72;;;4.78;;
35312;SDS011;21425;50.454;30.466;2022-09-21T00:18:25;6.30;;;5.03;;
35312;SDS011;21425;50.454;30.466;2022-09-21T00:20:51;10.15;;;4.15;;
35312;SDS011;21425;50.454;30.466;2022-09-21T00:23:17;8.20;;;4.43;;
35312;SDS011;21425;50.454;30.466;2022-09-21T00:25:43;8.10;;;4.95;;
35312;SDS011;21425;50.454;30.466;2022-09-21T00:28:08;7.15;;;5.07;;
35312;SDS011;21425;50.454;30.466;2022-09-21T00:30:34;6.75;;;5.18;;
35312;SDS011;21425;50.454;30.466;2022-09-21T00:32:59;6.18;;;4.63;;
35312;SDS011;21425;50.454;30.466;2022-09-21T00:35:25;9.18;;;4.75;;
35312;SDS011;21425;50.454;30.466;2022-09-21T00:37:50;9.60;;;5.22;;
35312;SDS011;21425;50.454;30.466;2022-09-21T00:40:16;7.78;;;5.00;;
35312;SDS011;21425;50.454;30.466;2022-09-21T00:42:42;8.38;;;5.38;;
35312;SDS011;21425;50.454;30.466;2022-09-21T00:45:09;8.50;;;4.97;;
35312;SDS011;21425;50.454;30.466;2022-09-21T00:47:45;6.60;;;4.93;;
35312;SDS011;21425;50.454;30.466;2022-09-21T00:50:14;6.55;;;5.20;;
35312;SDS011;21425;50.454;30.466;2022-09-21T00:52:44;5.75;;;4.68;;
35312;SDS011;21425;50.454;30.466;2022-09-21T00:55:15;6.05;;;4.60;;
35312;SDS011;21425;50.454;30.466;2022-09-21T00:57:46;9.30;;;5.50;;
35312;SDS011;21425;50.454;30.466;2022-09-21T01:00:16;7.50;;;5.05;;
35312;SDS011;21425;50.454;30.466;2022-09-21T01:02:42;7.78;;;5.10;;
35312;SDS011;21425;50.454;30.466;2022-09-21T01:05:08;7.90;;;5.05;;
35312;SDS011;21425;50.454;30.466;2022-09-21T01:07:35;7.93;;;5.00;;
35312;SDS011;21425;50.454;30.466;2022-09-21T01:10:05;11.85;;;5.25;;
35312;SDS011;21425;50.454;30.466;2022-09-21T01:18:19;8.85;;;5.53;;
35312;SDS011;21425;50.454;30.466;2022-09-21T01:23:53;10.77;;;5.63;;
35312;SDS011;21425;50.454;30.466;2022-09-21T01:29:41;6.55;;;5.18;;
35312;SDS011;21425;50.454;30.466;2022-09-21T01:34:51;11.95;;;6.65;;
35312;SDS011;21425;50.454;30.466;2022-09-21T01:40:06;9.27;;;6.05;;
35312;SDS011;21425;50.454;30.466;2022-09-21T01:42:36;9.13;;;6.10;;
35312;SDS011;21425;50.454;30.466;2022-09-21T01:45:06;7.97;;;6.28;;
35312;SDS011;21425;50.454;30.466;2022-09-21T01:47:35;6.50;;;5.68;;
35312;SDS011;21425;50.454;30.466;2022-09-21T01:50:04;7.00;;;5.15;;
35312;SDS011;21425;50.454;30.466;2022-09-21T01:52:35;7.60;;;5.93;;
35312;SDS011;21425;50.454;30.466;2022-09-21T01:55:14;7.80;;;5.70;;
35312;SDS011;21425;50.454;30.466;2022-09-21T01:57:55;6.88;;;5.65;;
35312;SDS011;21425;50.454;30.466;2022-09-21T02:00:22;8.80;;;7.07;;
35312;SDS011;21425;50.454;30.466;2022-09-21T02:02:53;7.78;;;6.40;;
35312;SDS011;21425;50.454;30.466;2022-09-21T02:05:24;12.05;;;7.32;;
35312;SDS011;21425;50.454;30.466;2022-09-21T02:07:52;10.30;;;6.15;;
35312;SDS011;21425;50.454;30.466;2022-09-21T02:10:22;8.45;;;6.30;;
35312;SDS011;21425;50.454;30.466;2022-09-21T02:12:54;9.13;;;6.43;;
35312;SDS011;21425;50.454;30.466;2022-09-21T02:15:26;10.50;;;6.00;;
35312;SDS011;21425;50.454;30.466;2022-09-21T02:18:11;8.13;;;5.78;;
35312;SDS011;21425;50.454;30.466;2022-09-21T02:20:52;7.90;;;6.38;;
35312;SDS011;21425;50.454;30.466;2022-09-21T02:26:11;9.07;;;6.28;;
35312;SDS011;21425;50.454;30.466;2022-09-21T02:28:49;8.82;;;6.10;;
35312;SDS011;21425;50.454;30.466;2022-09-21T02:31:31;9.32;;;5.72;;
35312;SDS011;21425;50.454;30.466;2022-09-21T02:34:00;8.45;;;6.63;;
35312;SDS011;21425;50.454;30.466;2022-09-21T02:36:42;12.95;;;7.10;;
35312;SDS011;21425;50.454;30.466;2022-09-21T02:39:15;7.70;;;5.32;;
35312;SDS011;21425;50.454;30.466;2022-09-21T02:44:19;7.72;;;5.65;;
35312;SDS011;21425;50.454;30.466;2022-09-21T02:46:54;10.40;;;6.10;;
35312;SDS011;21425;50.454;30.466;2022-09-21T02:49:26;8.32;;;5.50;;
35312;SDS011;21425;50.454;30.466;2022-09-21T02:52:03;5.30;;;4.25;;
35312;SDS011;21425;50.454;30.466;2022-09-21T02:54:36;6.03;;;5.32;;
35312;SDS011;21425;50.454;30.466;2022-09-21T02:57:04;7.45;;;4.90;;
35312;SDS011;21425;50.454;30.466;2022-09-21T02:59:31;6.15;;;4.78;;
35312;SDS011;21425;50.454;30.466;2022-09-21T03:01:57;9.13;;;4.97;;
35312;SDS011;21425;50.454;30.466;2022-09-21T03:04:23;6.38;;;4.95;;
35312;SDS011;21425;50.454;30.466;2022-09-21T03:06:49;6.63;;;5.40;;
35312;SDS011;21425;50.454;30.466;2022-09-21T03:09:15;6.70;;;5.03;;
35312;SDS011;21425;50.454;30.466;2022-09-21T03:11:41;5.53;;;4.38;;
35312;SDS011;21425;50.454;30.466;2022-09-21T03:14:07;6.65;;;5.18;;
35312;SDS011;21425;50.454;30.466;2022-09-21T03:16:33;9.85;;;5.32;;
35312;SDS011;21425;50.454;30.466;2022-09-21T03:19:00;7.78;;;5.30;;
35312;SDS011;21425;50.454;30.466;2022-09-21T03:21:25;7.30;;;5.88;;
35312;SDS011;21425;50.454;30.466;2022-09-21T03:23:51;6.32;;;5.15;;
35312;SDS011;21425;50.454;30.466;2022-09-21T03:26:17;6.03;;;4.65;;
35312;SDS011;21425;50.454;30.466;2022-09-21T03:28:46;9.23;;;6.80;;
35312;SDS011;21425;50.454;30.466;2022-09-21T03:31:12;8.18;;;5.32;;
35312;SDS011;21425;50.454;30.466;2022-09-21T03:33:37;8.00;;;5.22;;
35312;SDS011;21425;50.454;30.466;2022-09-21T03:36:03;5.30;;;4.28;;
35312;SDS011;21425;50.454;30.466;2022-09-21T03:38:29;6.97;;;5.55;;
35312;SDS011;21425;50.454;30.466;2022-09-21T03:40:54;6.03;;;4.75;;
35312;SDS011;21425;50.454;30.466;2022-09-21T03:43:21;5.90;;;5.18;;
35312;SDS011;21425;50.454;30.466;2022-09-21T03:45:47;6.38;;;4.72;;
35312;SDS011;21425;50.454;30.466;2022-09-21T03:48:13;10.02;;;6.03;;
35312;SDS011;21425;50.454;30.466;2022-09-21T03:50:39;7.03;;;4.95;;
35312;SDS011;21425;50.454;30.466;2022-09-21T03:53:05;6.38;;;4.85;;
35312;SDS011;21425;50.454;30.466;2022-09-21T03:55:32;6.55;;;5.35;;
35312;SDS011;21425;50.454;30.466;2022-09-21T03:57:58;6.22;;;5.30;;
35312;SDS011;21425;50.454;30.466;2022-09-21T04:00:24;8.05;;;4.68;;
35312;SDS011;21425;50.454;30.466;2022-09-21T04:02:50;7.38;;;5.15;;
35312;SDS011;21425;50.454;30.466;2022-09-21T04:05:16;5.88;;;4.70;;
35312;SDS011;21425;50.454;30.466;2022-09-21T04:07:43;8.25;;;5.38;;
35312;SDS011;21425;50.454;30.466;2022-09-21T04:10:13;7.15;;;4.70;;
35312;SDS011;21425;50.454;30.466;2022-09-21T04:12:41;8.15;;;5.63;;
35312;SDS011;21425;50.454;30.466;2022-09-21T04:15:12;7.43;;;5.00;;
35312;SDS011;21425;50.454;30.466;2022-09-21T04:17:40;6.60;;;5.13;;
35312;SDS011;21425;50.454;30.466;2022-09-21T04:20:06;7.60;;;5.40;;
35312;SDS011;21425;50.454;30.466;2022-09-21T04:22:33;9.73;;;5.88;;
35312;SDS011;21425;50.454;30.466;2022-09-21T04:24:59;9.77;;;5.55;;
35312;SDS011;21425;50.454;30.466;2022-09-21T04:27:25;6.20;;;4.80;;
35312;SDS011;21425;50.454;30.466;2022-09-21T04:29:51;6.85;;;5.25;;
35312;SDS011;21425;50.454;30.466;2022-09-21T04:32:16;6.85;;;4.40;;
35312;SDS011;21425;50.454;30.466;2022-09-21T04:34:42;6.65;;;4.45;;
35312;SDS011;21425;50.454;30.466;2022-09-21T04:37:08;7.03;;;4.72;;
35312;SDS011;21425;50.454;30.466;2022-09-21T04:39:37;9.95;;;4.85;;
35312;SDS011;21425;50.454;30.466;2022-09-21T04:42:03;6.88;;;5.18;;
35312;SDS011;21425;50.454;30.466;2022-09-21T04:44:29;8.77;;;4.90;;
35312;SDS011;21425;50.454;30.466;2022-09-21T04:46:55;6.70;;;5.20;;
35312;SDS011;21425;50.454;30.466;2022-09-21T04:49:21;7.13;;;4.60;;
35312;SDS011;21425;50.454;30.466;2022-09-21T04:51:47;6.60;;;5.00;;
35312;SDS011;21425;50.454;30.466;2022-09-21T04:54:13;5.93;;;5.10;;
35312;SDS011;21425;50.454;30.466;2022-09-21T04:56:39;6.63;;;4.65;;
35312;SDS011;21425;50.454;30.466;2022-09-21T04:59:04;8.63;;;4.90;;
35312;SDS011;21425;50.454;30.466;2022-09-21T05:01:30;5.90;;;5.00;;
35312;SDS011;21425;50.454;30.466;2022-09-21T05:03:56;8.20;;;5.18;;
35312;SDS011;21425;50.454;30.466;2022-09-21T05:06:29;6.72;;;4.85;;
35312;SDS011;21425;50.454;30.466;2022-09-21T05:08:56;7.07;;;5.90;;
35312;SDS011;21425;50.454;30.466;2022-09-21T05:11:41;7.60;;;5.60;;
35312;SDS011;21425;50.454;30.466;2022-09-21T05:14:07;10.60;;;5.55;;
35312;SDS011;21425;50.454;30.466;2022-09-21T05:16:33;5.32;;;4.70;;
35312;SDS011;21425;50.454;30.466;2022-09-21T05:18:58;9.52;;;5.53;;
35312;SDS011;21425;50.454;30.466;2022-09-21T05:21:24;5.60;;;4.70;;
35312;SDS011;21425;50.454;30.466;2022-09-21T05:23:50;6.00;;;3.78;;
35312;SDS011;21425;50.454;30.466;2022-09-21T05:26:16;5.30;;;4.13;;
35312;SDS011;21425;50.454;30.466;2022-09-21T05:28:42;5.35;;;4.35;;
35312;SDS011;21425;50.454;30.466;2022-09-21T05:39:25;8.20;;;6.82;;
35312;SDS011;21425;50.454;30.466;2022-09-21T05:41:51;7.05;;;5.40;;
35312;SDS011;21425;50.454;30.466;2022-09-21T05:44:17;9.85;;;5.60;;
35312;SDS011;21425;50.454;30.466;2022-09-21T05:46:48;7.85;;;5.05;;
35312;SDS011;21425;50.454;30.466;2022-09-21T05:57:08;5.50;;;4.15;;
35312;SDS011;21425;50.454;30.466;2022-09-21T06:05:32;4.78;;;3.88;;
35312;SDS011;21425;50.454;30.466;2022-09-21T06:07:58;5.35;;;3.92;;
35312;SDS011;21425;50.454;30.466;2022-09-21T06:10:23;8.57;;;3.45;;
35312;SDS011;21425;50.454;30.466;2022-09-21T06:12:50;5.90;;;3.90;;
35312;SDS011;21425;50.454;30.466;2022-09-21T06:15:16;5.40;;;3.83;;
35312;SDS011;21425;50.454;30.466;2022-09-21T06:17:42;6.28;;;3.83;;
35312;SDS011;21425;50.454;30.466;2022-09-21T06:20:07;4.85;;;3.42;;
35312;SDS011;21425;50.454;30.466;2022-09-21T06:22:34;5.10;;;3.60;;
35312;SDS011;21425;50.454;30.466;2022-09-21T06:25:00;4.03;;;2.90;;
35312;SDS011;21425;50.454;30.466;2022-09-21T06:27:28;6.50;;;3.42;;
35312;SDS011;21425;50.454;30.466;2022-09-21T06:29:54;5.47;;;3.42;;
35312;SDS011;21425;50.454;30.466;2022-09-21T06:32:20;5.60;;;4.00;;
35312;SDS011;21425;50.454;30.466;2022-09-21T06:34:45;4.55;;;3.65;;
35312;SDS011;21425;50.454;30.466;2022-09-21T06:37:11;8.18;;;3.50;;
35312;SDS011;21425;50.454;30.466;2022-09-21T06:39:37;6.20;;;3.63;;
35312;SDS011;21425;50.454;30.466;2022-09-21T06:42:02;4.40;;;3.40;;
35312;SDS011;21425;50.454;30.466;2022-09-21T06:44:28;6.35;;;3.33;;
35312;SDS011;21425;50.454;30.466;2022-09-21T06:46:54;5.38;;;3.63;;
35312;SDS011;21425;50.454;30.466;2022-09-21T06:49:20;4.82;;;3.33;;
35312;SDS011;21425;50.454;30.466;2022-09-21T06:51:48;4.90;;;3.70;;
35312;SDS011;21425;50.454;30.466;2022-09-21T06:54:14;6.05;;;4.57;;
35312;SDS011;21425;50.454;30.466;2022-09-21T06:56:39;7.00;;;3.72;;
35312;SDS011;21425;50.454;30.466;2022-09-21T06:59:07;4.25;;;3.25;;
35312;SDS011;21425;50.454;30.466;2022-09-21T07:01:33;6.20;;;4.28;;
35312;SDS011;21425;50.454;30.466;2022-09-21T07:03:58;8.25;;;3.75;;
35312;SDS011;21425;50.454;30.466;2022-09-21T07:06:24;5.85;;;4.10;;
35312;SDS011;21425;50.454;30.466;2022-09-21T07:08:52;5.57;;;3.63;;
35312;SDS011;21425;50.454;30.466;2022-09-21T07:11:18;5.63;;;4.20;;
35312;SDS011;21425;50.454;30.466;2022-09-21T07:13:45;4.10;;;3.20;;
35312;SDS011;21425;50.454;30.466;2022-09-21T07:16:10;5.82;;;3.95;;
35312;SDS011;21425;50.454;30.466;2022-09-21T07:18:38;5.07;;;3.72;;
35312;SDS011;21425;50.454;30.466;2022-09-21T07:21:05;7.53;;;3.80;;
35312;SDS011;21425;50.454;30.466;2022-09-21T07:23:32;4.70;;;3.63;;
35312;SDS011;21425;50.454;30.466;2022-09-21T07:26:02;8.60;;;4.25;;
35312;SDS011;21425;50.454;30.466;2022-09-21T07:28:33;6.22;;;4.72;;
35312;SDS011;21425;50.454;30.466;2022-09-21T07:31:04;6.63;;;4.90;;
35312;SDS011;21425;50.454;30.466;2022-09-21T07:33:32;11.00;;;4.93;;
35312;SDS011;21425;50.454;30.466;2022-09-21T07:35:58;6.13;;;4.63;;
35312;SDS011;21425;50.454;30.466;2022-09-21T07:38:25;6.43;;;4.80;;
35312;SDS011;21425;50.454;30.466;2022-09-21T07:40:51;7.30;;;4.10;;
35312;SDS011;21425;50.454;30.466;2022-09-21T07:43:17;5.78;;;3.97;;
35312;SDS011;21425;50.454;30.466;2022-09-21T07:45:42;6.07;;;4.97;;
35312;SDS011;21425;50.454;30.466;2022-09-21T07:48:08;5.65;;;3.80;;
35312;SDS011;21425;50.454;30.466;2022-09-21T07:50:34;5.45;;;4.68;;
35312;SDS011;21425;50.454;30.466;2022-09-21T07:53:00;7.28;;;4.18;;
35312;SDS011;21425;50.454;30.466;2022-09-21T07:55:26;6.43;;;4.70;;
35312;SDS011;21425;50.454;30.466;2022-09-21T07:57:52;5.50;;;3.92;;
35312;SDS011;21425;50.454;30.466;2022-09-21T08:03:02;6.57;;;4.70;;
35312;SDS011;21425;50.454;30.466;2022-09-21T08:05:29;7.55;;;4.82;;
35312;SDS011;21425;50.454;30.466;2022-09-21T08:07:55;8.07;;;4.85;;
35312;SDS011;21425;50.454;30.466;2022-09-21T08:10:22;6.50;;;4.55;;
35312;SDS011;21425;50.454;30.466;2022-09-21T08:12:53;7.00;;;4.75;;
35312;SDS011;21425;50.454;30.466;2022-09-21T08:15:19;6.10;;;4.72;;
35312;SDS011;21425;50.454;30.466;2022-09-21T08:17:45;6.80;;;4.45;;
35312;SDS011;21425;50.454;30.466;2022-09-21T08:20:11;5.55;;;4.85;;
35312;SDS011;21425;50.454;30.466;2022-09-21T08:22:37;5.90;;;4.22;;
35312;SDS011;21425;50.454;30.466;2022-09-21T08:25:04;8.65;;;4.90;;
35312;SDS011;21425;50.454;30.466;2022-09-21T08:27:29;6.60;;;4.55;;
35312;SDS011;21425;50.454;30.466;2022-09-21T08:29:55;7.65;;;4.18;;
35312;SDS011;21425;50.454;30.466;2022-09-21T08:32:21;6.70;;;3.95;;
35312;SDS011;21425;50.454;30.466;2022-09-21T08:34:47;7.18;;;4.93;;
35312;SDS011;21425;50.454;30.466;2022-09-21T08:37:13;5.97;;;4.55;;
35312;SDS011;21425;50.454;30.466;2022-09-21T08:39:39;10.52;;;5.07;;
35312;SDS011;21425;50.454;30.466;2022-09-21T08:42:14;7.50;;;5.03;;
35312;SDS011;21425;50.454;30.466;2022-09-21T08:44:53;6.55;;;4.30;;
35312;SDS011;21425;50.454;30.466;2022-09-21T08:47:27;4.60;;;3.55;;
35312;SDS011;21425;50.454;30.466;2022-09-21T08:50:02;9.05;;;5.03;;
35312;SDS011;21425;50.454;30.466;2022-09-21T08:52:29;5.57;;;4.15;;
35312;SDS011;21425;50.454;30.466;2022-09-21T08:55:11;6.30;;;3.30;;
35312;SDS011;21425;50.454;30.466;2022-09-21T08:57:41;4.15;;;3.03;;
35312;SDS011;21425;50.454;30.466;2022-09-21T09:00:17;5.57;;;3.53;;
35312;SDS011;21425;50.454;30.466;2022-09-21T09:02:55;6.35;;;4.13;;
35312;SDS011;21425;50.454;30.466;2022-09-21T09:05:46;8.02;;;3.65;;
35312;SDS011;21425;50.454;30.466;2022-09-21T09:16:04;5.45;;;3.70;;
35312;SDS011;21425;50.454;30.466;2022-09-21T09:21:18;5.32;;;4.10;;
35312;SDS011;21425;50.454;30.466;2022-09-21T09:26:51;6.85;;;4.25;;
35312;SDS011;21425;50.454;30.466;2022-09-21T09:29:21;7.28;;;3.60;;
35312;SDS011;21425;50.454;30.466;2022-09-21T09:32:13;5.32;;;3.47;;
35312;SDS011;21425;50.454;30.466;2022-09-21T09:34:41;4.68;;;3.70;;
35312;SDS011;21425;50.454;30.466;2022-09-21T09:37:30;6.05;;;4.13;;
35312;SDS011;21425;50.454;30.466;2022-09-21T09:40:00;4.07;;;3.15;;
35312;SDS011;21425;50.454;30.466;2022-09-21T09:42:35;5.88;;;3.72;;
35312;SDS011;21425;50.454;30.466;2022-09-21T09:48:17;3.60;;;2.72;;
35312;SDS011;21425;50.454;30.466;2022-09-21T09:50:51;3.85;;;2.58;;
35312;SDS011;21425;50.454;30.466;2022-09-21T09:53:18;5.03;;;2.80;;
35312;SDS011;21425;50.454;30.466;2022-09-21T09:55:47;3.70;;;2.92;;
35312;SDS011;21425;50.454;30.466;2022-09-21T10:01:37;8.68;;;4.25;;
35312;SDS011;21425;50.454;30.466;2022-09-21T10:04:15;4.45;;;2.67;;
35312;SDS011;21425;50.454;30.466;2022-09-21T10:06:41;9.60;;;3.75;;
35312;SDS011;21425;50.454;30.466;2022-09-21T10:11:48;5.45;;;2.10;;
35312;SDS011;21425;50.454;30.466;2022-09-21T10:14:20;4.28;;;2.03;;
35312;SDS011;21425;50.454;30.466;2022-09-21T10:16:49;6.20;;;2.25;;
35312;SDS011;21425;50.454;30.466;2022-09-21T10:19:17;3.50;;;2.60;;
35312;SDS011;21425;50.454;30.466;2022-09-21T10:21:45;6.43;;;2.42;;
35312;SDS011;21425;50.454;30.466;2022-09-21T10:27:04;5.35;;;2.33;;
35312;SDS011;21425;50.454;30.466;2022-09-21T10:29:42;3.47;;;2.25;;
35312;SDS011;21425;50.454;30.466;2022-09-21T10:34:37;3.00;;;1.70;;
35312;SDS011;21425;50.454;30.466;2022-09-21T10:37:25;3.30;;;1.92;;
35312;SDS011;21425;50.454;30.466;2022-09-21T10:39:58;3.30;;;2.00;;
35312;SDS011;21425;50.454;30.466;2022-09-21T10:42:24;3.97;;;2.13;;
35312;SDS011;21425;50.454;30.466;2022-09-21T10:44:51;3.45;;;2.47;;
35312;SDS011;21425;50.454;30.466;2022-09-21T10:49:57;4.00;;;2.80;;
35312;SDS011;21425;50.454;30.466;2022-09-21T10:52:38;5.85;;;2.90;;
35312;SDS011;21425;50.454;30.466;2022-09-21T10:55:14;4.50;;;2.88;;
35312;SDS011;21425;50.454;30.466;2022-09-21T10:57:41;4.60;;;2.85;;
35312;SDS011;21425;50.454;30.466;2022-09-21T11:02:48;4.72;;;2.88;;
35312;SDS011;21425;50.454;30.466;2022-09-21T11:05:22;6.65;;;3.40;;
35312;SDS011;21425;50.454;30.466;2022-09-21T11:13:04;6.50;;;3.38;;
35312;SDS011;21425;50.454;30.466;2022-09-21T11:20:49;6.65;;;2.85;;
35312;SDS011;21425;50.454;30.466;2022-09-21T11:23:22;5.82;;;2.90;;
35312;SDS011;21425;50.454;30.466;2022-09-21T11:26:16;3.50;;;2.60;;
35312;SDS011;21425;50.454;30.466;2022-09-21T11:28:52;3.45;;;2.55;;
35312;SDS011;21425;50.454;30.466;2022-09-21T11:41:52;4.90;;;2.85;;
35312;SDS011;21425;50.454;30.466;2022-09-21T11:44:21;5.80;;;2.80;;
35312;SDS011;21425;50.454;30.466;2022-09-21T11:49:40;7.20;;;3.00;;
35312;SDS011;21425;50.454;30.466;2022-09-21T11:52:33;3.88;;;2.63;;
35312;SDS011;21425;50.454;30.466;2022-09-21T11:56:12;5.25;;;3.08;;
35312;SDS011;21425;50.454;30.466;2022-09-21T12:03:48;3.28;;;1.40;;
35312;SDS011;21425;50.454;30.466;2022-09-21T12:11:45;2.10;;;1.60;;
35312;SDS011;21425;50.454;30.466;2022-09-21T12:17:03;4.30;;;1.75;;
35312;SDS011;21425;50.454;30.466;2022-09-21T12:22:33;3.80;;;1.60;;
35312;SDS011;21425;50.454;30.466;2022-09-21T12:25:16;1.60;;;1.20;;
35312;SDS011;21425;50.454;30.466;2022-09-21T12:27:49;1.58;;;1.23;;
35312;SDS011;21425;50.454;30.466;2022-09-21T12:30:19;2.40;;;1.30;;
35312;SDS011;21425;50.454;30.466;2022-09-21T12:35:34;1.23;;;0.90;;
35312;SDS011;21425;50.454;30.466;2022-09-21T12:40:53;2.60;;;1.65;;
35312;SDS011;21425;50.454;30.466;2022-09-21T12:43:35;3.53;;;2.20;;
35312;SDS011;21425;50.454;30.466;2022-09-21T12:46:04;2.33;;;1.70;;
35312;SDS011;21425;50.454;30.466;2022-09-21T12:48:37;3.30;;;1.77;;
35312;SDS011;21425;50.454;30.466;2022-09-21T12:51:11;3.30;;;2.38;;
35312;SDS011;21425;50.454;30.466;2022-09-21T12:53:54;4.47;;;2.20;;
35312;SDS011;21425;50.454;30.466;2022-09-21T13:01:35;2.47;;;1.98;;
35312;SDS011;21425;50.454;30.466;2022-09-21T13:07:00;4.50;;;2.83;;
35312;SDS011;21425;50.454;30.466;2022-09-21T13:09:32;5.07;;;2.70;;
35312;SDS011;21425;50.454;30.466;2022-09-21T13:11:59;5.68;;;3.88;;
35312;SDS011;21425;50.454;30.466;2022-09-21T13:14:33;6.57;;;3.28;;
35312;SDS011;21425;50.454;30.466;2022-09-21T13:17:05;5.95;;;3.35;;
35312;SDS011;21425;50.454;30.466;2022-09-21T13:19:32;6.32;;;3.45;;
35312;SDS011;21425;50.454;30.466;2022-09-21T13:24:44;7.50;;;3.00;;
35312;SDS011;21425;50.454;30.466;2022-09-21T13:38:29;3.58;;;2.30;;
35312;SDS011;21425;50.454;30.466;2022-09-21T13:44:04;4.22;;;2.42;;
35312;SDS011;21425;50.454;30.466;2022-09-21T13:49:15;3.00;;;2.10;;
35312;SDS011;21425;50.454;30.466;2022-09-21T13:54:34;2.67;;;1.80;;
35312;SDS011;21425;50.454;30.466;2022-09-21T14:00:31;3.90;;;1.52;;
35312;SDS011;21425;50.454;30.466;2022-09-21T14:05:28;3.85;;;2.00;;
35312;SDS011;21425;50.454;30.466;2022-09-21T14:10:38;2.20;;;1.20;;
35312;SDS011;21425;50.454;30.466;2022-09-21T14:13:06;5.00;;;1.60;;
35312;SDS011;21425;50.454;30.466;2022-09-21T14:15:52;2.22;;;1.60;;
35312;SDS011;21425;50.454;30.466;2022-09-21T14:18:19;2.97;;;1.65;;
35312;SDS011;21425;50.454;30.466;2022-09-21T14:29:16;3.53;;;1.23;;
35312;SDS011;21425;50.454;30.466;2022-09-21T14:32:03;3.92;;;1.25;;
35312;SDS011;21425;50.454;30.466;2022-09-21T14:34:35;4.00;;;1.80;;
35312;SDS011;21425;50.454;30.466;2022-09-21T14:37:09;3.92;;;1.80;;
35312;SDS011;21425;50.454;30.466;2022-09-21T14:39:45;2.33;;;1.60;;
35312;SDS011;21425;50.454;30.466;2022-09-21T14:42:14;3.17;;;1.67;;
35312;SDS011;21425;50.454;30.466;2022-09-21T14:44:43;3.03;;;1.73;;
35312;SDS011;21425;50.454;30.466;2022-09-21T15:01:20;3.63;;;1.90;;
35312;SDS011;21425;50.454;30.466;2022-09-21T15:15:41;3.67;;;2.03;;
35312;SDS011;21425;50.454;30.466;2022-09-21T15:18:20;5.15;;;2.05;;
35312;SDS011;21425;50.454;30.466;2022-09-21T15:20:54;2.78;;;2.13;;
35312;SDS011;21425;50.454;30.466;2022-09-21T15:23:25;4.38;;;2.28;;
35312;SDS011;21425;50.454;30.466;2022-09-21T15:26:08;4.32;;;2.45;;
35312;SDS011;21425;50.454;30.466;2022-09-21T15:28:37;5.53;;;2.30;;
35312;SDS011;21425;50.454;30.466;2022-09-21T15:31:14;3.50;;;2.50;;
35312;SDS011;21425;50.454;30.466;2022-09-21T15:33:40;4.60;;;2.95;;
35312;SDS011;21425;50.454;30.466;2022-09-21T15:36:10;4.78;;;2.30;;
35312;SDS011;21425;50.454;30.466;2022-09-21T15:38:36;5.45;;;2.58;;
35312;SDS011;21425;50.454;30.466;2022-09-21T15:41:03;5.28;;;2.20;;
35312;SDS011;21425;50.454;30.466;2022-09-21T15:43:30;4.05;;;2.40;;
35312;SDS011;21425;50.454;30.466;2022-09-21T15:46:02;3.67;;;2.20;;
35312;SDS011;21425;50.454;30.466;2022-09-21T15:48:38;3.60;;;2.05;;
35312;SDS011;21425;50.454;30.466;2022-09-21T15:53:36;2.95;;;2.20;;
35312;SDS011;21425;50.454;30.466;2022-09-21T15:56:09;6.57;;;2.20;;
35312;SDS011;21425;50.454;30.466;2022-09-21T15:58:46;3.38;;;2.55;;
35312;SDS011;21425;50.454;30.466;2022-09-21T16:01:17;4.10;;;2.83;;
35312;SDS011;21425;50.454;30.466;2022-09-21T16:03:45;4.53;;;2.40;;
35312;SDS011;21425;50.454;30.466;2022-09-21T16:06:25;2.90;;;2.15;;
35312;SDS011;21425;50.454;30.466;2022-09-21T16:08:53;4.57;;;2.05;;
35312;SDS011;21425;50.454;30.466;2022-09-21T16:13:58;3.40;;;2.15;;
35312;SDS011;21425;50.454;30.466;2022-09-21T16:20:12;2.88;;;2.28;;
35312;SDS011;21425;50.454;30.466;2022-09-21T16:22:41;5.47;;;3.13;;
35312;SDS011;21425;50.454;30.466;2022-09-21T16:27:59;5.38;;;3.00;;
35312;SDS011;21425;50.454;30.466;2022-09-21T16:38:42;4.65;;;3.22;;
35312;SDS011;21425;50.454;30.466;2022-09-21T16:41:11;3.90;;;2.38;;
35312;SDS011;21425;50.454;30.466;2022-09-21T16:43:36;4.20;;;2.65;;
35312;SDS011;21425;50.454;30.466;2022-09-21T16:46:07;6.28;;;3.22;;
35312;SDS011;21425;50.454;30.466;2022-09-21T16:48:35;5.45;;;3.40;;
35312;SDS011;21425;50.454;30.466;2022-09-21T16:51:01;6.63;;;3.83;;
35312;SDS011;21425;50.454;30.466;2022-09-21T16:53:27;5.20;;;3.60;;
35312;SDS011;21425;50.454;30.466;2022-09-21T16:55:53;6.13;;;4.13;;
35312;SDS011;21425;50.454;30.466;2022-09-21T16:58:19;6.25;;;4.05;;
35312;SDS011;21425;50.454;30.466;2022-09-21T17:00:46;7.50;;;4.47;;
35312;SDS011;21425;50.454;30.466;2022-09-21T17:03:15;6.95;;;4.30;;
35312;SDS011;21425;50.454;30.466;2022-09-21T17:05:41;9.38;;;4.28;;
35312;SDS011;21425;50.454;30.466;2022-09-21T17:08:08;9.75;;;5.03;;
35312;SDS011;21425;50.454;30.466;2022-09-21T17:10:38;8.00;;;5.65;;
35312;SDS011;21425;50.454;30.466;2022-09-21T17:13:07;8.88;;;5.03;;
35312;SDS011;21425;50.454;30.466;2022-09-21T17:15:33;7.35;;;4.88;;
35312;SDS011;21425;50.454;30.466;2022-09-21T17:18:00;6.57;;;4.63;;
35312;SDS011;21425;50.454;30.466;2022-09-21T17:22:59;10.20;;;5.53;;
35312;SDS011;21425;50.454;30.466;2022-09-21T17:25:31;8.88;;;5.28;;
35312;SDS011;21425;50.454;30.466;2022-09-21T17:27:58;9.02;;;5.35;;
35312;SDS011;21425;50.454;30.466;2022-09-21T17:30:24;8.18;;;5.13;;
35312;SDS011;21425;50.454;30.466;2022-09-21T17:32:51;7.43;;;5.47;;
35312;SDS011;21425;50.454;30.466;2022-09-21T17:38:00;7.80;;;5.28;;
35312;SDS011;21425;50.454;30.466;2022-09-21T17:40:26;9.15;;;5.13;;
35312;SDS011;21425;50.454;30.466;2022-09-21T17:42:55;7.85;;;5.68;;
35312;SDS011;21425;50.454;30.466;2022-09-21T17:48:37;9.85;;;5.07;;
35312;SDS011;21425;50.454;30.466;2022-09-21T17:51:04;7.90;;;5.00;;
35312;SDS011;21425;50.454;30.466;2022-09-21T17:53:30;8.40;;;5.07;;
35312;SDS011;21425;50.454;30.466;2022-09-21T17:56:01;12.80;;;5.32;;
35312;SDS011;21425;50.454;30.466;2022-09-21T17:58:54;7.30;;;5.20;;
35312;SDS011;21425;50.454;30.466;2022-09-21T18:03:56;8.13;;;5.00;;
35312;SDS011;21425;50.454;30.466;2022-09-21T18:06:22;5.93;;;4.10;;
35312;SDS011;21425;50.454;30.466;2022-09-21T18:08:48;8.48;;;4.75;;
35312;SDS011;21425;50.454;30.466;2022-09-21T18:16:51;8.10;;;4.53;;
35312;SDS011;21425;50.454;30.466;2022-09-21T18:19:54;7.85;;;4.50;;
35312;SDS011;21425;50.454;30.466;2022-09-21T18:25:33;8.05;;;4.75;;
35312;SDS011;21425;50.454;30.466;2022-09-21T18:28:11;14.60;;;6.85;;
35312;SDS011;21425;50.454;30.466;2022-09-21T18:30:49;10.68;;;5.10;;
35312;SDS011;21425;50.454;30.466;2022-09-21T18:38:28;11.07;;;5.10;;
35312;SDS011;21425;50.454;30.466;2022-09-21T18:54:31;11.15;;;5.75;;
35312;SDS011;21425;50.454;30.466;2022-09-21T18:56:57;8.48;;;5.38;;
35312;SDS011;21425;50.454;30.466;2022-09-21T18:59:23;9.27;;;5.40;;
35312;SDS011;21425;50.454;30.466;2022-09-21T19:01:49;8.95;;;5.85;;
35312;SDS011;21425;50.454;30.466;2022-09-21T19:04:16;7.55;;;5.07;;
35312;SDS011;21425;50.454;30.466;2022-09-21T19:06:51;8.82;;;5.40;;
35312;SDS011;21425;50.454;30.466;2022-09-21T19:10:05;10.90;;;7.07;;